Cassopolis, MI (49031)

3:35 PM EST on March 02, 2015 (GMT -0500)
Cass County | Change Station
CLOSE
Current Station
Personal Weather Station
Location: Cassopolis, MI
Elevation: 879 ft
Nearby Weather Stations
Active Advisory: Winter Weather Advisory

Elev 879 ft 41.88 °N, 86.04 °W | Updated 5 minutes ago

Clear
Clear
32.2 °F
Feels Like 25 °F
N
8.1
Wind Variable Wind from NW
Gusts 12.5 mph

Today
High -- | Low -- °F
--% Chance of Precip.
Yesterday
High -- | Low -- °F
Precip. -- in
7:17 AM 6:35 PM
Waxing Gibbous, 93% visible
Pressure 30.46 in
Visibility 10.0 miles
Clouds Clear
Windchill 25 °F
Dew Point 7 °F
Humidity 34%
Rainfall 0.04 in
Snow Depth Not available.
UV 4 out of 12
Pollen .40 out of 12
Air Quality Not available.
Flu Activity Not available.
METAR KEKM 021950Z 29005KT 10SM CLR M02/M11 A3046

More Conditions Fewer Conditions

Pressure 30.46 in
Visibility 10.0 miles
Clouds Clear
Windchill 25 °F
Dew Point 7 °F
Humidity 34%
Rainfall 0.04 in
Snow Depth Not available.
UV 4 out of 12
Pollen .40 out of 12
Air Quality Not available.
Flu Activity Not available.
METAR KEKM 021950Z 29005KT 10SM CLR M02/M11 A3046

More Conditions Fewer Conditions

10-Day Weather Forecast

Almanac

Astronomy

Mar. 02, 2015 Rise Set
Actual Time
Civil Twilight
Nautical Twilight
Astronomical Twilight
Moon
Length of Visible Light
Length of Day
Tomorrow will be .
, % of the Moon is Illuminated

Today's Extremes

State Highs State Lows

Community

WunderPhotos

Upload Photos

1,801,939 photos uploaded!

WunderBlogs® & News

Nearby

Air Quality

  Air Quality AQ Index Pollutant
Not available.

Snow Depth

Station Depth Elevation

Earthquake Activity

City Distance Mag. Time & Date
Minimum magnitude displayed is 2.5.

Coastal Water Temperatures

Place Temperature

Nearby Weather Stations

Winter Weather Advisory
Statement as of 2:02 PM CST on March 02, 2015

... Winter Weather Advisory in effect from 6 am EST /5 am CST/ to
1 PM EST /noon CST/ Tuesday...

The National Weather Service in northern Indiana has issued a
Winter Weather Advisory for freezing rain and sleet... which is in
effect from 6 am EST /5 am CST/ to 1 PM EST /noon CST/ Tuesday.

Hazardous weather...

* freezing rain spreads from southwest /6 am EST/ to northeast /9
   am EST/.

* The precipitation will start as a mixture of sleet... freezing
   rain and snow.

* Expect 1 to 2 hours of freezing rain before changing to all
   rain. Rain will overspread the area by or before 1 PM EST.

Impacts...

* sheltered roads... overpasses and intersections will be icy and
   dangerous.

* Sidewalks and driveways will be icy and dangerous.

* Morning commute will be affected.

Precautionary/preparedness actions...

A Winter Weather Advisory means that periods of snow... sleet... or
freezing rain will cause travel difficulties. Be prepared for
dangerous driving conditions and limited visibility... and use
extra caution while driving.